sensor_id;sensor_type;location;lat;lon;timestamp;pressure;altitude;pressure_sealevel;temperature;humidity
73453;BME280;61687;56.232;43.854;2022-12-07T00:00:46;102674.38;;;-8.82;68.36
73453;BME280;61687;56.232;43.854;2022-12-07T00:03:12;102679.91;;;-8.84;68.17
73453;BME280;61687;56.232;43.854;2022-12-07T00:05:38;102675.22;;;-8.82;67.75
73453;BME280;61687;56.232;43.854;2022-12-07T00:08:04;102667.78;;;-8.86;68.29
73453;BME280;61687;56.232;43.854;2022-12-07T00:10:30;102670.09;;;-8.83;68.25
73453;BME280;61687;56.232;43.854;2022-12-07T00:12:55;102667.09;;;-8.80;67.98
73453;BME280;61687;56.232;43.854;2022-12-07T00:15:21;102674.38;;;-8.82;67.93
73453;BME280;61687;56.232;43.854;2022-12-07T00:17:47;102672.47;;;-8.88;68.36
73453;BME280;61687;56.232;43.854;2022-12-07T00:20:13;102666.13;;;-8.87;68.20
73453;BME280;61687;56.232;43.854;2022-12-07T00:22:39;102665.31;;;-8.88;68.14
73453;BME280;61687;56.232;43.854;2022-12-07T00:25:05;102669.44;;;-8.85;68.42
73453;BME280;61687;56.232;43.854;2022-12-07T00:27:31;102674.59;;;-8.84;68.16
73453;BME280;61687;56.232;43.854;2022-12-07T00:29:57;102662.94;;;-8.83;67.93
73453;BME280;61687;56.232;43.854;2022-12-07T00:32:23;102668.63;;;-8.86;68.22
73453;BME280;61687;56.232;43.854;2022-12-07T00:34:49;102671.16;;;-8.93;68.55
73453;BME280;61687;56.232;43.854;2022-12-07T00:37:14;102663.19;;;-8.93;68.56
73453;BME280;61687;56.232;43.854;2022-12-07T00:39:40;102665.84;;;-8.93;68.83
73453;BME280;61687;56.232;43.854;2022-12-07T00:42:06;102671.66;;;-8.89;68.75
73453;BME280;61687;56.232;43.854;2022-12-07T00:44:32;102669.78;;;-8.88;68.79
73453;BME280;61687;56.232;43.854;2022-12-07T00:46:58;102659.66;;;-8.85;68.37
73453;BME280;61687;56.232;43.854;2022-12-07T00:49:24;102663.66;;;-8.89;68.41
73453;BME280;61687;56.232;43.854;2022-12-07T00:51:50;102675.94;;;-8.88;68.50
73453;BME280;61687;56.232;43.854;2022-12-07T00:54:16;102679.13;;;-8.93;68.55
73453;BME280;61687;56.232;43.854;2022-12-07T00:56:42;102671.69;;;-8.97;68.74
73453;BME280;61687;56.232;43.854;2022-12-07T00:59:12;102673.81;;;-8.93;68.26
73453;BME280;61687;56.232;43.854;2022-12-07T01:01:39;102671.22;;;-9.01;68.52
73453;BME280;61687;56.232;43.854;2022-12-07T01:04:05;102675.88;;;-9.03;68.86
73453;BME280;61687;56.232;43.854;2022-12-07T01:06:31;102670.03;;;-8.98;68.67
73453;BME280;61687;56.232;43.854;2022-12-07T01:08:58;102672.22;;;-9.02;68.62
73453;BME280;61687;56.232;43.854;2022-12-07T01:11:26;102675.69;;;-9.01;68.90
73453;BME280;61687;56.232;43.854;2022-12-07T01:13:54;102677.53;;;-9.02;69.18
73453;BME280;61687;56.232;43.854;2022-12-07T01:16:22;102669.09;;;-9.06;69.13
73453;BME280;61687;56.232;43.854;2022-12-07T01:18:51;102671.22;;;-9.01;68.98
73453;BME280;61687;56.232;43.854;2022-12-07T01:21:22;102674.06;;;-9.02;69.14
73453;BME280;61687;56.232;43.854;2022-12-07T01:23:49;102667.72;;;-9.01;69.05
73453;BME280;61687;56.232;43.854;2022-12-07T01:26:18;102673.22;;;-9.03;69.23
73453;BME280;61687;56.232;43.854;2022-12-07T01:28:44;102664.59;;;-9.05;69.29
73453;BME280;61687;56.232;43.854;2022-12-07T01:31:16;102675.22;;;-9.05;69.07
73453;BME280;61687;56.232;43.854;2022-12-07T01:33:44;102670.25;;;-9.08;68.86
73453;BME280;61687;56.232;43.854;2022-12-07T01:36:22;102670.63;;;-9.11;69.13
73453;BME280;61687;56.232;43.854;2022-12-07T01:38:50;102675.00;;;-9.18;69.40
73453;BME280;61687;56.232;43.854;2022-12-07T01:41:20;102666.38;;;-9.21;69.35
73453;BME280;61687;56.232;43.854;2022-12-07T01:44:17;102673.03;;;-9.25;69.46
73453;BME280;61687;56.232;43.854;2022-12-07T01:46:57;102672.28;;;-9.33;69.47
73453;BME280;61687;56.232;43.854;2022-12-07T01:52:20;102668.16;;;-9.44;69.94
73453;BME280;61687;56.232;43.854;2022-12-07T01:54:49;102666.84;;;-9.49;69.83
73453;BME280;61687;56.232;43.854;2022-12-07T01:57:17;102679.31;;;-9.49;69.94
73453;BME280;61687;56.232;43.854;2022-12-07T01:59:44;102671.34;;;-9.49;69.94
73453;BME280;61687;56.232;43.854;2022-12-07T02:02:31;102673.34;;;-9.51;69.94
73453;BME280;61687;56.232;43.854;2022-12-07T02:05:00;102673.34;;;-9.51;69.97
73453;BME280;61687;56.232;43.854;2022-12-07T02:07:27;102671.84;;;-9.54;69.85
73453;BME280;61687;56.232;43.854;2022-12-07T02:09:54;102672.22;;;-9.57;69.93
73453;BME280;61687;56.232;43.854;2022-12-07T02:12:20;102666.41;;;-9.60;70.08
73453;BME280;61687;56.232;43.854;2022-12-07T02:15:08;102675.88;;;-9.58;69.86
73453;BME280;61687;56.232;43.854;2022-12-07T02:17:48;102676.38;;;-9.63;69.72
73453;BME280;61687;56.232;43.854;2022-12-07T02:20:43;102669.59;;;-9.65;69.65
73453;BME280;61687;56.232;43.854;2022-12-07T02:31:19;102679.59;;;-9.75;69.82
73453;BME280;61687;56.232;43.854;2022-12-07T02:33:52;102669.31;;;-9.79;69.92
73453;BME280;61687;56.232;43.854;2022-12-07T02:36:25;102684.25;;;-9.78;69.75
73453;BME280;61687;56.232;43.854;2022-12-07T02:39:00;102664.72;;;-9.85;69.70
73453;BME280;61687;56.232;43.854;2022-12-07T02:41:33;102671.97;;;-9.87;69.75
73453;BME280;61687;56.232;43.854;2022-12-07T02:44:05;102671.97;;;-9.87;69.70
73453;BME280;61687;56.232;43.854;2022-12-07T02:46:36;102677.63;;;-9.90;69.98
73453;BME280;61687;56.232;43.854;2022-12-07T02:49:04;102666.88;;;-9.88;69.97
73453;BME280;61687;56.232;43.854;2022-12-07T02:51:32;102675.81;;;-9.98;69.94
73453;BME280;61687;56.232;43.854;2022-12-07T02:53:59;102677.03;;;-10.00;70.37
73453;BME280;61687;56.232;43.854;2022-12-07T03:04:50;102687.63;;;-10.00;69.90
73453;BME280;61687;56.232;43.854;2022-12-07T03:07:43;102684.97;;;-10.00;70.01
73453;BME280;61687;56.232;43.854;2022-12-07T03:13:17;102692.28;;;-10.11;70.19
73453;BME280;61687;56.232;43.854;2022-12-07T03:18:33;102699.56;;;-10.13;70.34
73453;BME280;61687;56.232;43.854;2022-12-07T03:21:06;102693.63;;;-10.15;70.41
73453;BME280;61687;56.232;43.854;2022-12-07T03:23:37;102687.31;;;-10.14;70.32
73453;BME280;61687;56.232;43.854;2022-12-07T03:26:06;102685.50;;;-10.13;70.32
73453;BME280;61687;56.232;43.854;2022-12-07T03:28:38;102684.50;;;-10.12;70.23
73453;BME280;61687;56.232;43.854;2022-12-07T03:31:26;102683.00;;;-10.15;70.39
73453;BME280;61687;56.232;43.854;2022-12-07T03:36:39;102684.00;;;-10.16;70.50
73453;BME280;61687;56.232;43.854;2022-12-07T03:41:39;102692.31;;;-10.19;70.47
73453;BME280;61687;56.232;43.854;2022-12-07T03:44:05;102693.81;;;-10.16;70.34
73453;BME280;61687;56.232;43.854;2022-12-07T03:46:49;102690.66;;;-10.20;70.38
73453;BME280;61687;56.232;43.854;2022-12-07T03:49:31;102702.59;;;-10.24;70.32
73453;BME280;61687;56.232;43.854;2022-12-07T03:52:36;102698.63;;;-10.28;70.57
73453;BME280;61687;56.232;43.854;2022-12-07T03:57:34;102714.03;;;-10.32;70.61
73453;BME280;61687;56.232;43.854;2022-12-07T04:00:02;102711.53;;;-10.33;70.51
73453;BME280;61687;56.232;43.854;2022-12-07T04:02:38;102710.41;;;-10.39;70.82
73453;BME280;61687;56.232;43.854;2022-12-07T04:05:04;102703.28;;;-10.39;70.87
73453;BME280;61687;56.232;43.854;2022-12-07T04:07:30;102711.22;;;-10.39;70.76
73453;BME280;61687;56.232;43.854;2022-12-07T04:09:56;102708.75;;;-10.40;70.89
73453;BME280;61687;56.232;43.854;2022-12-07T04:12:22;102705.09;;;-10.39;70.95
73453;BME280;61687;56.232;43.854;2022-12-07T04:14:48;102714.53;;;-10.37;70.77
73453;BME280;61687;56.232;43.854;2022-12-07T04:17:14;102713.38;;;-10.34;70.98
73453;BME280;61687;56.232;43.854;2022-12-07T04:19:39;102711.06;;;-10.37;71.19
73453;BME280;61687;56.232;43.854;2022-12-07T04:22:05;102707.56;;;-10.38;71.10
73453;BME280;61687;56.232;43.854;2022-12-07T04:24:32;102703.94;;;-10.37;71.16
73453;BME280;61687;56.232;43.854;2022-12-07T04:26:58;102699.81;;;-10.39;71.24
73453;BME280;61687;56.232;43.854;2022-12-07T04:29:25;102704.63;;;-10.43;71.20
73453;BME280;61687;56.232;43.854;2022-12-07T04:31:51;102697.03;;;-10.46;71.43
73453;BME280;61687;56.232;43.854;2022-12-07T04:34:17;102698.00;;;-10.47;71.61
73453;BME280;61687;56.232;43.854;2022-12-07T04:36:44;102705.78;;;-10.45;71.66
73453;BME280;61687;56.232;43.854;2022-12-07T04:39:27;102695.53;;;-10.48;71.73
73453;BME280;61687;56.232;43.854;2022-12-07T04:41:54;102692.06;;;-10.49;71.61
73453;BME280;61687;56.232;43.854;2022-12-07T04:44:20;102702.81;;;-10.51;71.63
73453;BME280;61687;56.232;43.854;2022-12-07T04:46:47;102703.16;;;-10.54;71.78
73453;BME280;61687;56.232;43.854;2022-12-07T04:49:14;102704.63;;;-10.59;72.07
73453;BME280;61687;56.232;43.854;2022-12-07T04:51:41;102710.59;;;-10.57;71.90
73453;BME280;61687;56.232;43.854;2022-12-07T04:54:07;102704.81;;;-10.61;71.99
73453;BME280;61687;56.232;43.854;2022-12-07T04:56:33;102711.91;;;-10.61;72.07
73453;BME280;61687;56.232;43.854;2022-12-07T04:59:01;102711.78;;;-10.60;71.94
73453;BME280;61687;56.232;43.854;2022-12-07T05:01:27;102713.06;;;-10.64;71.96
73453;BME280;61687;56.232;43.854;2022-12-07T05:03:53;102720.19;;;-10.65;72.09
73453;BME280;61687;56.232;43.854;2022-12-07T05:06:19;102710.75;;;-10.67;72.33
73453;BME280;61687;56.232;43.854;2022-12-07T05:08:45;102726.50;;;-10.66;72.37
73453;BME280;61687;56.232;43.854;2022-12-07T05:11:11;102722.84;;;-10.65;72.43
73453;BME280;61687;56.232;43.854;2022-12-07T05:14:02;102721.03;;;-10.64;72.14
73453;BME280;61687;56.232;43.854;2022-12-07T05:16:28;102718.56;;;-10.66;72.49
73453;BME280;61687;56.232;43.854;2022-12-07T05:18:54;102724.84;;;-10.67;72.50
73453;BME280;61687;56.232;43.854;2022-12-07T05:21:20;102726.84;;;-10.69;72.54
73453;BME280;61687;56.232;43.854;2022-12-07T05:23:46;102726.31;;;-10.64;72.68
73453;BME280;61687;56.232;43.854;2022-12-07T05:26:12;102728.16;;;-10.65;72.66
73453;BME280;61687;56.232;43.854;2022-12-07T05:28:38;102729.16;;;-10.66;72.68
73453;BME280;61687;56.232;43.854;2022-12-07T05:31:04;102721.84;;;-10.64;72.48
73453;BME280;61687;56.232;43.854;2022-12-07T05:33:29;102721.84;;;-10.64;72.51
73453;BME280;61687;56.232;43.854;2022-12-07T05:35:55;102727.66;;;-10.68;72.31
73453;BME280;61687;56.232;43.854;2022-12-07T05:38:21;102731.63;;;-10.72;72.48
73453;BME280;61687;56.232;43.854;2022-12-07T05:40:47;102733.28;;;-10.71;72.54
73453;BME280;61687;56.232;43.854;2022-12-07T05:43:13;102725.47;;;-10.73;72.60
73453;BME280;61687;56.232;43.854;2022-12-07T05:45:39;102734.13;;;-10.71;72.47
73453;BME280;61687;56.232;43.854;2022-12-07T05:48:05;102725.19;;;-10.70;72.29
73453;BME280;61687;56.232;43.854;2022-12-07T05:50:31;102726.16;;;-10.71;72.25
73453;BME280;61687;56.232;43.854;2022-12-07T05:53:00;102727.66;;;-10.68;72.22
73453;BME280;61687;56.232;43.854;2022-12-07T05:55:26;102722.16;;;-10.75;72.28
73453;BME280;61687;56.232;43.854;2022-12-07T05:57:52;102733.78;;;-10.68;72.16
73453;BME280;61687;56.232;43.854;2022-12-07T06:00:36;102731.47;;;-10.71;72.17
73453;BME280;61687;56.232;43.854;2022-12-07T06:03:02;102731.63;;;-10.72;71.91
73453;BME280;61687;56.232;43.854;2022-12-07T06:05:28;102726.31;;;-10.72;72.23
73453;BME280;61687;56.232;43.854;2022-12-07T06:07:53;102728.50;;;-10.68;71.83
73453;BME280;61687;56.232;43.854;2022-12-07T06:10:19;102716.91;;;-10.67;71.59
73453;BME280;61687;56.232;43.854;2022-12-07T06:12:45;102723.66;;;-10.64;71.43
73453;BME280;61687;56.232;43.854;2022-12-07T06:15:12;102724.50;;;-10.64;71.46
73453;BME280;61687;56.232;43.854;2022-12-07T06:17:38;102723.84;;;-10.57;71.32
73453;BME280;61687;56.232;43.854;2022-12-07T06:20:05;102725.16;;;-10.53;71.17
73453;BME280;61687;56.232;43.854;2022-12-07T06:22:31;102725.66;;;-10.50;71.32
73453;BME280;61687;56.232;43.854;2022-12-07T06:24:57;102725.00;;;-10.43;71.11
73453;BME280;61687;56.232;43.854;2022-12-07T06:27:23;102727.13;;;-10.39;70.87
73453;BME280;61687;56.232;43.854;2022-12-07T06:29:49;102730.09;;;-10.33;70.75
73453;BME280;61687;56.232;43.854;2022-12-07T06:32:15;102725.47;;;-10.23;70.45
73453;BME280;61687;56.232;43.854;2022-12-07T06:34:41;102723.63;;;-10.23;70.41
73453;BME280;61687;56.232;43.854;2022-12-07T06:37:07;102716.50;;;-10.22;70.03
73453;BME280;61687;56.232;43.854;2022-12-07T06:39:32;102726.47;;;-10.24;70.33
73453;BME280;61687;56.232;43.854;2022-12-07T06:41:58;102729.94;;;-10.24;70.23
73453;BME280;61687;56.232;43.854;2022-12-07T06:44:24;102726.94;;;-10.21;70.05
73453;BME280;61687;56.232;43.854;2022-12-07T06:46:51;102724.78;;;-10.17;70.06
73453;BME280;61687;56.232;43.854;2022-12-07T06:49:17;102714.69;;;-10.13;69.76
73453;BME280;61687;56.232;43.854;2022-12-07T06:51:43;102712.69;;;-10.11;69.58
73453;BME280;61687;56.232;43.854;2022-12-07T06:54:11;102723.28;;;-10.11;69.72
73453;BME280;61687;56.232;43.854;2022-12-07T06:56:37;102726.59;;;-10.09;69.81
73453;BME280;61687;56.232;43.854;2022-12-07T06:59:04;102721.94;;;-10.07;69.48
73453;BME280;61687;56.232;43.854;2022-12-07T07:01:33;102728.75;;;-10.04;69.58
73453;BME280;61687;56.232;43.854;2022-12-07T07:03:59;102728.75;;;-10.04;69.39
73453;BME280;61687;56.232;43.854;2022-12-07T07:06:25;102729.22;;;-10.01;69.41
73453;BME280;61687;56.232;43.854;2022-12-07T07:08:51;102727.56;;;-9.94;69.32
73453;BME280;61687;56.232;43.854;2022-12-07T07:11:17;102732.34;;;-9.89;69.29
73453;BME280;61687;56.232;43.854;2022-12-07T07:13:44;102733.00;;;-9.87;68.89
73453;BME280;61687;56.232;43.854;2022-12-07T07:16:10;102743.81;;;-9.88;68.96
73453;BME280;61687;56.232;43.854;2022-12-07T07:18:36;102743.63;;;-9.87;68.64
73453;BME280;61687;56.232;43.854;2022-12-07T07:21:02;102743.47;;;-9.94;68.67
73453;BME280;61687;56.232;43.854;2022-12-07T07:23:28;102741.84;;;-9.95;68.75
73453;BME280;61687;56.232;43.854;2022-12-07T07:25:54;102744.13;;;-10.00;68.65
73453;BME280;61687;56.232;43.854;2022-12-07T07:28:20;102744.97;;;-9.99;68.87
73453;BME280;61687;56.232;43.854;2022-12-07T07:30:46;102749.94;;;-9.96;68.79
73453;BME280;61687;56.232;43.854;2022-12-07T07:33:12;102748.44;;;-9.90;68.82
73453;BME280;61687;56.232;43.854;2022-12-07T07:35:38;102746.94;;;-9.85;68.64
73453;BME280;61687;56.232;43.854;2022-12-07T07:38:05;102747.91;;;-9.78;68.63
73453;BME280;61687;56.232;43.854;2022-12-07T07:40:31;102751.53;;;-9.70;68.41
73453;BME280;61687;56.232;43.854;2022-12-07T07:42:57;102757.50;;;-9.68;68.34
73453;BME280;61687;56.232;43.854;2022-12-07T07:45:24;102751.19;;;-9.67;68.12
73453;BME280;61687;56.232;43.854;2022-12-07T07:47:50;102748.03;;;-9.63;68.30
73453;BME280;61687;56.232;43.854;2022-12-07T07:50:17;102751.00;;;-9.57;68.07
73453;BME280;61687;56.232;43.854;2022-12-07T07:52:43;102749.84;;;-9.55;68.23
73453;BME280;61687;56.232;43.854;2022-12-07T07:55:09;102751.44;;;-9.45;68.15
73453;BME280;61687;56.232;43.854;2022-12-07T07:57:36;102758.91;;;-9.41;67.93
73453;BME280;61687;56.232;43.854;2022-12-07T08:00:12;102755.25;;;-9.40;67.38
73453;BME280;61687;56.232;43.854;2022-12-07T08:02:40;102745.81;;;-9.42;67.42
73453;BME280;61687;56.232;43.854;2022-12-07T08:05:06;102744.81;;;-9.41;67.80
73453;BME280;61687;56.232;43.854;2022-12-07T08:07:32;102745.28;;;-9.38;67.70
73453;BME280;61687;56.232;43.854;2022-12-07T08:09:58;102754.38;;;-9.32;67.62
73453;BME280;61687;56.232;43.854;2022-12-07T08:12:24;102749.72;;;-9.30;67.60
73453;BME280;61687;56.232;43.854;2022-12-07T08:14:49;102752.03;;;-9.27;67.75
73453;BME280;61687;56.232;43.854;2022-12-07T08:17:15;102748.72;;;-9.21;67.69
73453;BME280;61687;56.232;43.854;2022-12-07T08:19:42;102745.69;;;-9.17;67.74
73453;BME280;61687;56.232;43.854;2022-12-07T08:22:07;102744.34;;;-9.13;67.73
73453;BME280;61687;56.232;43.854;2022-12-07T08:24:34;102751.97;;;-9.10;67.53
73453;BME280;61687;56.232;43.854;2022-12-07T08:27:00;102749.59;;;-9.05;67.80
73453;BME280;61687;56.232;43.854;2022-12-07T08:29:26;102750.59;;;-8.98;67.43
73453;BME280;61687;56.232;43.854;2022-12-07T08:31:53;102741.78;;;-8.98;67.36
73453;BME280;61687;56.232;43.854;2022-12-07T08:34:19;102742.25;;;-8.95;67.35
73453;BME280;61687;56.232;43.854;2022-12-07T08:36:44;102751.66;;;-8.84;67.14
73453;BME280;61687;56.232;43.854;2022-12-07T08:39:10;102743.47;;;-8.82;66.92
73453;BME280;61687;56.232;43.854;2022-12-07T08:41:36;102740.50;;;-8.79;66.60
73453;BME280;61687;56.232;43.854;2022-12-07T08:44:02;102734.63;;;-8.74;67.02
73453;BME280;61687;56.232;43.854;2022-12-07T08:46:46;102741.78;;;-8.75;66.43
73453;BME280;61687;56.232;43.854;2022-12-07T08:49:19;102741.59;;;-8.73;66.52
73453;BME280;61687;56.232;43.854;2022-12-07T08:51:46;102733.59;;;-8.65;66.65
73453;BME280;61687;56.232;43.854;2022-12-07T08:54:15;102740.00;;;-8.59;66.28
73453;BME280;61687;56.232;43.854;2022-12-07T08:56:43;102735.53;;;-8.59;66.55
73453;BME280;61687;56.232;43.854;2022-12-07T08:59:09;102730.78;;;-8.49;66.57
73453;BME280;61687;56.232;43.854;2022-12-07T09:01:37;102730.50;;;-8.39;66.72
73453;BME280;61687;56.232;43.854;2022-12-07T09:04:03;102737.91;;;-8.26;66.55
73453;BME280;61687;56.232;43.854;2022-12-07T09:06:30;102734.66;;;-8.21;65.44
73453;BME280;61687;56.232;43.854;2022-12-07T09:08:58;102737.16;;;-8.20;65.88
73453;BME280;61687;56.232;43.854;2022-12-07T09:11:24;102736.81;;;-8.16;65.80
73453;BME280;61687;56.232;43.854;2022-12-07T09:13:50;102739.94;;;-7.83;65.45
73453;BME280;61687;56.232;43.854;2022-12-07T09:16:16;102736.47;;;-7.53;64.69
73453;BME280;61687;56.232;43.854;2022-12-07T09:18:42;102738.09;;;-7.37;64.44
73453;BME280;61687;56.232;43.854;2022-12-07T09:21:08;102726.75;;;-7.09;63.77
73453;BME280;61687;56.232;43.854;2022-12-07T09:23:34;102734.34;;;-6.69;63.06
73453;BME280;61687;56.232;43.854;2022-12-07T09:26:02;102737.88;;;-6.12;61.94
73453;BME280;61687;56.232;43.854;2022-12-07T09:28:28;102745.50;;;-5.73;61.43
73453;BME280;61687;56.232;43.854;2022-12-07T09:30:53;102738.78;;;-5.63;61.03
73453;BME280;61687;56.232;43.854;2022-12-07T09:33:19;102734.06;;;-5.61;60.15
73453;BME280;61687;56.232;43.854;2022-12-07T09:35:48;102727.94;;;-5.48;59.01
73453;BME280;61687;56.232;43.854;2022-12-07T09:38:15;102735.13;;;-5.55;59.01
73453;BME280;61687;56.232;43.854;2022-12-07T09:40:41;102734.13;;;-5.47;59.14
73453;BME280;61687;56.232;43.854;2022-12-07T09:43:18;102730.97;;;-5.15;59.05
73453;BME280;61687;56.232;43.854;2022-12-07T09:45:47;102726.91;;;-4.98;58.37
73453;BME280;61687;56.232;43.854;2022-12-07T09:48:18;102727.94;;;-4.92;57.64
73453;BME280;61687;56.232;43.854;2022-12-07T09:50:46;102733.91;;;-4.83;57.93
73453;BME280;61687;56.232;43.854;2022-12-07T09:55:45;102723.84;;;-4.00;56.53
73453;BME280;61687;56.232;43.854;2022-12-07T09:58:19;102725.63;;;-3.67;55.59
73453;BME280;61687;56.232;43.854;2022-12-07T10:00:46;102716.72;;;-3.54;55.63
73453;BME280;61687;56.232;43.854;2022-12-07T10:03:12;102719.84;;;-3.12;54.39
73453;BME280;61687;56.232;43.854;2022-12-07T10:05:42;102719.97;;;-2.68;53.77
73453;BME280;61687;56.232;43.854;2022-12-07T10:08:13;102712.91;;;-2.11;52.01
73453;BME280;61687;56.232;43.854;2022-12-07T10:10:39;102715.09;;;-2.52;52.01
73453;BME280;61687;56.232;43.854;2022-12-07T10:13:14;102719.91;;;-3.25;53.99
73453;BME280;61687;56.232;43.854;2022-12-07T10:15:55;102717.88;;;-3.96;55.00
73453;BME280;61687;56.232;43.854;2022-12-07T10:18:32;102712.13;;;-4.40;56.52
73453;BME280;61687;56.232;43.854;2022-12-07T10:23:38;102720.31;;;-4.89;58.32
73453;BME280;61687;56.232;43.854;2022-12-07T10:31:40;102720.06;;;-5.63;59.65
73453;BME280;61687;56.232;43.854;2022-12-07T10:34:23;102720.00;;;-5.76;59.86
73453;BME280;61687;56.232;43.854;2022-12-07T10:36:50;102707.22;;;-5.87;60.24
73453;BME280;61687;56.232;43.854;2022-12-07T10:39:21;102708.38;;;-5.97;60.59
73453;BME280;61687;56.232;43.854;2022-12-07T10:41:57;102716.78;;;-6.00;60.85
73453;BME280;61687;56.232;43.854;2022-12-07T10:44:30;102715.97;;;-6.00;60.81
73453;BME280;61687;56.232;43.854;2022-12-07T10:49:50;102710.38;;;-6.41;61.39
73453;BME280;61687;56.232;43.854;2022-12-07T10:52:39;102707.47;;;-6.46;61.80
73453;BME280;61687;56.232;43.854;2022-12-07T10:55:33;102702.38;;;-6.41;61.63
73453;BME280;61687;56.232;43.854;2022-12-07T11:01:01;102709.00;;;-5.60;60.18
73453;BME280;61687;56.232;43.854;2022-12-07T11:09:19;102711.28;;;-5.50;59.40
73453;BME280;61687;56.232;43.854;2022-12-07T11:14:56;102710.88;;;-5.47;59.19
73453;BME280;61687;56.232;43.854;2022-12-07T11:20:06;102713.16;;;-5.50;59.12
73453;BME280;61687;56.232;43.854;2022-12-07T11:22:51;102705.75;;;-5.90;60.02
73453;BME280;61687;56.232;43.854;2022-12-07T11:25:32;102695.84;;;-6.32;60.90
73453;BME280;61687;56.232;43.854;2022-12-07T11:34:21;102701.91;;;-7.31;63.52
73453;BME280;61687;56.232;43.854;2022-12-07T11:36:52;102702.22;;;-7.56;64.02
73453;BME280;61687;56.232;43.854;2022-12-07T11:39:26;102688.72;;;-7.70;64.84
73453;BME280;61687;56.232;43.854;2022-12-07T11:42:14;102686.56;;;-7.81;64.93
73453;BME280;61687;56.232;43.854;2022-12-07T11:45:02;102693.69;;;-7.97;65.60
73453;BME280;61687;56.232;43.854;2022-12-07T11:48:03;102691.47;;;-8.08;65.73
73453;BME280;61687;56.232;43.854;2022-12-07T11:50:42;102686.72;;;-8.13;65.91
73453;BME280;61687;56.232;43.854;2022-12-07T11:53:18;102681.38;;;-8.28;66.14
73453;BME280;61687;56.232;43.854;2022-12-07T11:55:49;102687.63;;;-8.36;66.67
73453;BME280;61687;56.232;43.854;2022-12-07T12:06:35;102685.53;;;-8.64;67.03
73453;BME280;61687;56.232;43.854;2022-12-07T12:09:27;102687.91;;;-8.69;67.21
73453;BME280;61687;56.232;43.854;2022-12-07T12:14:49;102696.13;;;-8.79;67.71
73453;BME280;61687;56.232;43.854;2022-12-07T12:23:17;102709.38;;;-8.94;67.97
73453;BME280;61687;56.232;43.854;2022-12-07T12:25:48;102704.75;;;-9.00;68.01
73453;BME280;61687;56.232;43.854;2022-12-07T12:31:06;102702.50;;;-9.11;68.24
73453;BME280;61687;56.232;43.854;2022-12-07T12:33:33;102694.25;;;-9.16;68.48
73453;BME280;61687;56.232;43.854;2022-12-07T12:47:00;102700.94;;;-9.29;69.01
73453;BME280;61687;56.232;43.854;2022-12-07T12:49:42;102706.94;;;-9.35;69.10
73453;BME280;61687;56.232;43.854;2022-12-07T12:57:36;102702.50;;;-9.43;69.00
73453;BME280;61687;56.232;43.854;2022-12-07T13:02:54;102693.41;;;-9.49;69.01
73453;BME280;61687;56.232;43.854;2022-12-07T13:05:26;102688.72;;;-9.46;69.10
73453;BME280;61687;56.232;43.854;2022-12-07T13:15:50;102687.47;;;-9.59;69.25
73453;BME280;61687;56.232;43.854;2022-12-07T13:21:01;102678.88;;;-9.61;69.26
73453;BME280;61687;56.232;43.854;2022-12-07T13:28:46;102677.72;;;-9.67;69.64
73453;BME280;61687;56.232;43.854;2022-12-07T13:34:39;102672.56;;;-9.68;69.52
73453;BME280;61687;56.232;43.854;2022-12-07T13:37:24;102674.56;;;-9.70;69.72
73453;BME280;61687;56.232;43.854;2022-12-07T13:39:54;102671.94;;;-9.70;69.70
73453;BME280;61687;56.232;43.854;2022-12-07T13:42:28;102669.28;;;-9.70;69.68
73453;BME280;61687;56.232;43.854;2022-12-07T13:44:55;102670.81;;;-9.76;69.89
73453;BME280;61687;56.232;43.854;2022-12-07T13:47:43;102671.63;;;-9.75;69.91
73453;BME280;61687;56.232;43.854;2022-12-07T13:50:28;102666.47;;;-9.77;70.10
73453;BME280;61687;56.232;43.854;2022-12-07T13:52:56;102678.78;;;-9.76;70.08
73453;BME280;61687;56.232;43.854;2022-12-07T13:55:22;102676.63;;;-9.81;70.17
73453;BME280;61687;56.232;43.854;2022-12-07T13:57:51;102674.13;;;-9.82;70.16
73453;BME280;61687;56.232;43.854;2022-12-07T14:03:04;102668.00;;;-9.83;70.23
73453;BME280;61687;56.232;43.854;2022-12-07T14:05:45;102668.00;;;-9.83;70.35
73453;BME280;61687;56.232;43.854;2022-12-07T14:10:39;102677.63;;;-9.90;70.34
73453;BME280;61687;56.232;43.854;2022-12-07T14:16:24;102667.69;;;-9.88;70.05
73453;BME280;61687;56.232;43.854;2022-12-07T14:18:51;102667.72;;;-9.96;70.32
73453;BME280;61687;56.232;43.854;2022-12-07T14:21:23;102663.75;;;-10.00;70.38
73453;BME280;61687;56.232;43.854;2022-12-07T14:26:33;102661.59;;;-10.05;70.53
73453;BME280;61687;56.232;43.854;2022-12-07T14:31:46;102655.00;;;-10.09;70.35
73453;BME280;61687;56.232;43.854;2022-12-07T14:34:13;102664.59;;;-10.08;70.37
73453;BME280;61687;56.232;43.854;2022-12-07T14:36:39;102661.44;;;-10.12;70.34
73453;BME280;61687;56.232;43.854;2022-12-07T14:39:04;102660.81;;;-10.14;70.54
73453;BME280;61687;56.232;43.854;2022-12-07T14:41:30;102661.16;;;-10.17;70.57
73453;BME280;61687;56.232;43.854;2022-12-07T14:44:15;102654.69;;;-10.23;70.66
73453;BME280;61687;56.232;43.854;2022-12-07T14:46:41;102664.63;;;-10.25;70.85
73453;BME280;61687;56.232;43.854;2022-12-07T14:49:06;102661.81;;;-10.23;70.72
73453;BME280;61687;56.232;43.854;2022-12-07T14:51:33;102654.69;;;-10.23;70.56
73453;BME280;61687;56.232;43.854;2022-12-07T14:54:01;102661.31;;;-10.27;70.55
73453;BME280;61687;56.232;43.854;2022-12-07T14:56:29;102661.31;;;-10.27;70.60
73453;BME280;61687;56.232;43.854;2022-12-07T14:58:55;102654.22;;;-10.26;70.77
73453;BME280;61687;56.232;43.854;2022-12-07T15:01:20;102651.88;;;-10.29;70.64
73453;BME280;61687;56.232;43.854;2022-12-07T15:03:46;102649.91;;;-10.27;70.52
73453;BME280;61687;56.232;43.854;2022-12-07T15:06:16;102658.53;;;-10.25;70.58